Time;durP1;ratioP1;P1;durP2;ratioP2;P2;SDS_P1;SDS_P2;PMS_P1;PMS_P2;Temp;Humidity;BMP_temperature;BMP_pressure;BME280_temperature;BME280_humidity;BME280_pressure;Samples;Min_cycle;Max_cycle;Signal;HPM_P1;HPM_P2
2022/10/09 00:01:31;;;;;;;;;;;16.30;99.90;;;;;;6183139;23;19928;-83
2022/10/09 00:03:58;;;;;;;;;;;16.30;99.90;;;;;;6182770;23;19948;-84
2022/10/09 00:06:30;;;;;;;;;;;16.30;99.90;;;;;;6183190;23;19974;-84
2022/10/09 00:08:58;;;;;;;;;;;16.30;99.90;;;;;;6182104;23;19999;-84
2022/10/09 00:11:25;;;;;;;;;;;16.30;99.90;;;;;;6183205;23;19991;-83
2022/10/09 00:13:53;;;;;;;;;;;16.30;99.90;;;;;;6182304;23;19920;-83
2022/10/09 00:16:20;;;;;;;;;;;16.30;99.90;;;;;;6183141;23;19920;-83
2022/10/09 00:18:47;;;;;;;;;;;16.30;99.90;;;;;;6182017;23;19924;-83
2022/10/09 00:21:17;;;;;;;;;;;16.30;99.90;;;;;;6183378;23;19920;-84
2022/10/09 00:23:44;;;;;;;;;;;16.30;99.90;;;;;;6180839;23;19926;-83
2022/10/09 00:26:11;;;;;;;;;;;16.30;99.90;;;;;;6183102;23;20257;-84
2022/10/09 00:28:37;;;;;;;;;;;16.30;99.90;;;;;;6180810;23;19924;-83
2022/10/09 00:31:05;;;;;;;;;;;16.20;99.90;;;;;;6182037;23;19924;-83
2022/10/09 00:33:32;;;;;;;;;;;16.20;99.90;;;;;;6183207;23;19924;-82
2022/10/09 00:36:03;;;;;;;;;;;16.20;99.90;;;;;;6183579;23;20252;-83
2022/10/09 00:38:30;;;;;;;;;;;16.20;99.90;;;;;;6185214;23;20251;-83
2022/10/09 00:40:57;;;;;;;;;;;16.20;99.90;;;;;;6183590;23;20252;-83
2022/10/09 00:43:41;;;;;;;;;;;16.20;99.90;;;;;;6185325;23;20260;-83
2022/10/09 00:46:33;;;;;;;;;;;16.20;99.90;;;;;;6182657;23;20264;-83
2022/10/09 00:49:03;;;;;;;;;;;16.20;99.90;;;;;;6179854;23;20347;-83
2022/10/09 00:51:30;;;;;;;;;;;16.20;99.90;;;;;;6185251;23;19927;-82
2022/10/09 00:53:57;;;;;;;;;;;16.30;99.90;;;;;;6184083;23;19944;-82
2022/10/09 00:56:24;;;;;;;;;;;16.20;99.90;;;;;;6185202;23;19956;-83
2022/10/09 00:58:53;;;;;;;;;;;16.20;99.90;;;;;;6184098;23;19963;-82
2022/10/09 01:01:20;;;;;;;;;;;16.20;99.90;;;;;;6186676;23;19920;-83
2022/10/09 01:03:47;;;;;;;;;;;16.20;99.90;;;;;;6186986;23;19921;-82
2022/10/09 01:06:32;;;;;;;;;;;16.20;99.90;;;;;;6187893;23;19991;-82
2022/10/09 01:09:02;;;;;;;;;;;16.20;99.90;;;;;;6189254;23;19987;-82
2022/10/09 01:11:32;;;;;;;;;;;16.20;99.90;;;;;;6188366;23;19991;-83
2022/10/09 01:13:59;;;;;;;;;;;16.20;99.90;;;;;;6186202;23;19939;-82
2022/10/09 01:16:34;;;;;;;;;;;16.20;99.90;;;;;;6187239;23;19987;-82
2022/10/09 01:19:20;;;;;;;;;;;16.20;99.90;;;;;;6189145;23;19935;-82
2022/10/09 01:22:02;;;;;;;;;;;16.20;99.90;;;;;;6191180;23;19920;-82
2022/10/09 01:24:29;;;;;;;;;;;16.20;99.90;;;;;;6195308;23;19927;-82
2022/10/09 01:27:03;;;;;;;;;;;16.20;99.90;;;;;;6191067;23;19974;-83
2022/10/09 01:29:35;;;;;;;;;;;16.20;99.90;;;;;;6193674;23;19956;-82
2022/10/09 01:32:02;;;;;;;;;;;16.20;99.90;;;;;;6193558;23;19921;-82
2022/10/09 01:34:30;;;;;;;;;;;16.10;99.90;;;;;;6189006;23;19940;-82
2022/10/09 01:36:57;;;;;;;;;;;16.10;99.90;;;;;;6185725;23;19924;-82
2022/10/09 01:39:24;;;;;;;;;;;16.10;99.90;;;;;;6186579;23;19920;-83
2022/10/09 01:41:52;;;;;;;;;;;16.10;99.90;;;;;;6185630;23;19920;-82
2022/10/09 01:44:20;;;;;;;;;;;16.10;99.90;;;;;;6185408;23;20288;-83
2022/10/09 01:46:47;;;;;;;;;;;16.10;99.90;;;;;;6185142;23;19924;-82
2022/10/09 01:49:32;;;;;;;;;;;16.10;99.90;;;;;;6184702;23;19939;-83
2022/10/09 01:52:05;;;;;;;;;;;16.10;99.90;;;;;;6185974;23;20322;-83
2022/10/09 01:54:51;;;;;;;;;;;16.20;99.90;;;;;;6187071;23;19948;-83
2022/10/09 01:57:21;;;;;;;;;;;16.20;99.90;;;;;;6186289;23;20260;-83
2022/10/09 01:59:50;;;;;;;;;;;16.20;99.90;;;;;;6187510;23;20004;-82
2022/10/09 02:02:17;;;;;;;;;;;16.10;99.90;;;;;;6186229;23;19955;-82
2022/10/09 02:04:44;;;;;;;;;;;16.20;99.90;;;;;;6186975;23;19970;-83
2022/10/09 02:07:11;;;;;;;;;;;16.10;99.90;;;;;;6184552;23;19951;-83
2022/10/09 02:09:38;;;;;;;;;;;16.10;99.90;;;;;;6185182;23;20320;-83
2022/10/09 02:12:08;;;;;;;;;;;16.10;99.90;;;;;;6184429;23;19927;-83
2022/10/09 02:14:34;;;;;;;;;;;16.20;99.90;;;;;;6186337;23;19920;-83
2022/10/09 02:17:04;;;;;;;;;;;16.10;99.90;;;;;;6186325;23;19991;-83
2022/10/09 02:19:42;;;;;;;;;;;16.20;99.90;;;;;;6186741;23;19925;-83
2022/10/09 02:22:14;;;;;;;;;;;16.10;99.90;;;;;;6192446;23;20004;-82
2022/10/09 02:24:42;;;;;;;;;;;16.10;99.90;;;;;;6191976;23;19920;-82
2022/10/09 02:27:11;;;;;;;;;;;16.10;99.90;;;;;;6192597;23;20455;-82
2022/10/09 02:29:39;;;;;;;;;;;16.10;99.90;;;;;;6193354;23;19991;-82
2022/10/09 02:32:07;;;;;;;;;;;16.10;99.90;;;;;;6191770;23;20053;-82
2022/10/09 02:34:33;;;;;;;;;;;16.10;99.90;;;;;;6195094;23;19920;-81
2022/10/09 02:37:00;;;;;;;;;;;16.10;99.90;;;;;;6192784;23;20256;-81
2022/10/09 02:39:27;;;;;;;;;;;16.10;99.90;;;;;;6200047;23;19924;-81
2022/10/09 02:41:54;;;;;;;;;;;16.10;99.90;;;;;;6197901;23;19927;-81
2022/10/09 02:44:20;;;;;;;;;;;16.00;99.90;;;;;;6197179;23;20320;-82
2022/10/09 02:46:47;;;;;;;;;;;16.00;99.90;;;;;;6191656;23;19948;-82
2022/10/09 02:49:14;;;;;;;;;;;16.00;99.90;;;;;;6193656;23;19920;-80
2022/10/09 02:51:41;;;;;;;;;;;16.00;99.90;;;;;;6194284;23;19928;-81
2022/10/09 02:54:07;;;;;;;;;;;16.10;99.90;;;;;;6195270;23;19955;-81
2022/10/09 02:56:34;;;;;;;;;;;16.10;99.90;;;;;;6191897;23;20401;-81
2022/10/09 02:59:05;;;;;;;;;;;16.10;99.90;;;;;;6189436;23;19920;-81
2022/10/09 03:01:31;;;;;;;;;;;16.00;99.90;;;;;;6191479;23;19981;-82
2022/10/09 03:03:58;;;;;;;;;;;16.10;99.90;;;;;;6191288;23;19920;-81
2022/10/09 03:06:26;;;;;;;;;;;16.10;99.90;;;;;;6190256;23;19920;-82
2022/10/09 03:08:53;;;;;;;;;;;16.00;99.90;;;;;;6191590;23;19944;-82
2022/10/09 03:11:21;;;;;;;;;;;16.10;99.90;;;;;;6189372;23;19942;-81
2022/10/09 03:13:47;;;;;;;;;;;16.00;99.90;;;;;;6187115;23;20363;-81
2022/10/09 03:16:15;;;;;;;;;;;16.10;99.90;;;;;;6195034;23;19927;-81
2022/10/09 03:18:42;;;;;;;;;;;16.00;99.90;;;;;;6196012;23;19947;-81
2022/10/09 03:21:10;;;;;;;;;;;16.00;99.90;;;;;;6189894;23;19999;-81
2022/10/09 03:23:38;;;;;;;;;;;16.00;99.90;;;;;;6190633;23;19928;-81
2022/10/09 03:26:07;;;;;;;;;;;15.90;99.90;;;;;;6191388;23;19932;-81
2022/10/09 03:28:34;;;;;;;;;;;15.90;99.90;;;;;;6194090;23;19921;-81
2022/10/09 03:31:01;;;;;;;;;;;15.90;99.90;;;;;;6197865;23;20299;-81
2022/10/09 03:33:28;;;;;;;;;;;15.90;99.90;;;;;;6196032;23;19920;-82
2022/10/09 03:35:55;;;;;;;;;;;15.90;99.90;;;;;;6188536;23;19991;-82
2022/10/09 03:38:22;;;;;;;;;;;15.90;99.90;;;;;;6187757;23;19968;-82
2022/10/09 03:40:49;;;;;;;;;;;15.90;99.90;;;;;;6188174;23;19924;-83
2022/10/09 03:43:15;;;;;;;;;;;15.90;99.90;;;;;;6186239;23;19959;-82
2022/10/09 03:45:42;;;;;;;;;;;15.90;99.90;;;;;;6185179;23;19924;-82
2022/10/09 03:48:10;;;;;;;;;;;15.90;99.90;;;;;;6186755;23;19926;-82
2022/10/09 03:50:37;;;;;;;;;;;15.90;99.90;;;;;;6186406;23;20260;-82
2022/10/09 03:53:04;;;;;;;;;;;15.80;99.90;;;;;;6183889;23;19926;-82
2022/10/09 03:55:31;;;;;;;;;;;15.80;99.90;;;;;;6185527;23;20312;-82
2022/10/09 03:57:57;;;;;;;;;;;15.80;99.90;;;;;;6188374;23;19936;-82
2022/10/09 04:00:24;;;;;;;;;;;15.80;99.90;;;;;;6185116;23;19942;-82
2022/10/09 04:02:51;;;;;;;;;;;15.80;99.90;;;;;;6188168;23;19936;-82
2022/10/09 04:05:18;;;;;;;;;;;15.80;99.90;;;;;;6188464;23;19920;-82
2022/10/09 04:07:45;;;;;;;;;;;15.80;99.90;;;;;;6187957;23;20341;-82
2022/10/09 04:10:12;;;;;;;;;;;15.80;99.90;;;;;;6187401;23;19952;-82
2022/10/09 04:12:39;;;;;;;;;;;15.80;99.90;;;;;;6186452;23;19995;-82
2022/10/09 04:15:06;;;;;;;;;;;15.80;99.90;;;;;;6186851;23;20299;-82
2022/10/09 04:17:33;;;;;;;;;;;15.80;99.90;;;;;;6188913;23;19920;-82
2022/10/09 04:19:59;;;;;;;;;;;15.80;99.90;;;;;;6193438;23;19963;-82
2022/10/09 04:22:26;;;;;;;;;;;15.80;99.90;;;;;;6195196;23;20288;-82
2022/10/09 04:24:53;;;;;;;;;;;15.80;99.90;;;;;;6194877;23;19936;-82
2022/10/09 04:27:19;;;;;;;;;;;15.80;99.90;;;;;;6193789;23;20285;-82
2022/10/09 04:29:46;;;;;;;;;;;15.80;99.90;;;;;;6194586;23;19991;-82
2022/10/09 04:32:13;;;;;;;;;;;15.80;99.90;;;;;;6192863;23;19936;-82
2022/10/09 04:34:39;;;;;;;;;;;15.80;99.90;;;;;;6195485;23;19947;-82
2022/10/09 04:37:06;;;;;;;;;;;15.90;99.90;;;;;;6193363;23;20409;-82
2022/10/09 04:39:33;;;;;;;;;;;15.90;99.90;;;;;;6195084;23;19932;-82
2022/10/09 04:41:59;;;;;;;;;;;15.90;99.90;;;;;;6195092;23;20378;-82
2022/10/09 04:44:26;;;;;;;;;;;15.80;99.90;;;;;;6193016;23;20253;-82
2022/10/09 04:46:53;;;;;;;;;;;15.90;99.90;;;;;;6192878;23;20336;-82
2022/10/09 04:49:20;;;;;;;;;;;15.90;99.90;;;;;;6188947;23;20002;-82
2022/10/09 04:51:46;;;;;;;;;;;15.90;99.90;;;;;;6192606;23;19959;-82
2022/10/09 04:54:13;;;;;;;;;;;15.80;99.90;;;;;;6190415;23;19960;-82
2022/10/09 04:56:40;;;;;;;;;;;15.80;99.90;;;;;;6186507;23;19920;-82
2022/10/09 04:59:06;;;;;;;;;;;15.70;99.90;;;;;;6186458;23;20019;-82
2022/10/09 05:01:33;;;;;;;;;;;15.70;99.90;;;;;;6190694;23;19991;-83
2022/10/09 05:04:04;;;;;;;;;;;15.70;99.90;;;;;;6187837;23;19939;-82
2022/10/09 05:06:31;;;;;;;;;;;15.70;99.90;;;;;;6188768;23;19958;-82
2022/10/09 05:08:57;;;;;;;;;;;15.70;99.90;;;;;;6188313;23;19948;-83
2022/10/09 05:11:24;;;;;;;;;;;15.70;99.90;;;;;;6185459;23;20257;-83
2022/10/09 05:13:53;;;;;;;;;;;15.60;99.90;;;;;;6186482;23;20329;-83
2022/10/09 05:16:21;;;;;;;;;;;15.60;99.90;;;;;;6186201;23;19920;-83
2022/10/09 05:18:49;;;;;;;;;;;15.60;99.90;;;;;;6188044;23;19920;-83
2022/10/09 05:21:16;;;;;;;;;;;15.50;99.90;;;;;;6187841;23;19999;-82
2022/10/09 05:23:43;;;;;;;;;;;15.60;99.90;;;;;;6187912;23;19995;-83
2022/10/09 05:26:11;;;;;;;;;;;15.50;99.90;;;;;;6186913;23;19956;-82
2022/10/09 05:28:38;;;;;;;;;;;15.50;99.90;;;;;;6187506;23;19927;-83
2022/10/09 05:31:06;;;;;;;;;;;15.60;99.90;;;;;;6185934;23;19943;-82
2022/10/09 05:33:33;;;;;;;;;;;15.60;99.90;;;;;;6186988;23;19920;-83
2022/10/09 05:36:00;;;;;;;;;;;15.60;99.90;;;;;;6185631;23;19995;-83
2022/10/09 05:38:27;;;;;;;;;;;15.70;99.90;;;;;;6186987;23;19943;-83
2022/10/09 05:40:59;;;;;;;;;;;15.70;99.90;;;;;;6186202;23;19943;-83
2022/10/09 05:43:26;;;;;;;;;;;15.70;99.90;;;;;;6186029;23;19950;-84
2022/10/09 05:45:52;;;;;;;;;;;15.70;99.90;;;;;;6187296;23;19920;-83
2022/10/09 05:48:20;;;;;;;;;;;15.70;99.90;;;;;;6186123;23;19920;-83
2022/10/09 05:50:47;;;;;;;;;;;15.80;99.90;;;;;;6187098;23;20248;-84
2022/10/09 05:53:14;;;;;;;;;;;15.80;99.90;;;;;;6186060;23;19999;-83
2022/10/09 05:55:40;;;;;;;;;;;15.80;99.90;;;;;;6185823;23;19924;-84
2022/10/09 05:58:07;;;;;;;;;;;15.80;99.90;;;;;;6184418;23;20003;-85
2022/10/09 06:00:34;;;;;;;;;;;15.80;99.90;;;;;;6184575;23;19920;-85
2022/10/09 06:03:01;;;;;;;;;;;15.80;99.90;;;;;;6185324;23;19991;-85
2022/10/09 06:05:28;;;;;;;;;;;15.70;99.90;;;;;;6183500;23;19999;-85
2022/10/09 06:07:54;;;;;;;;;;;15.70;99.90;;;;;;6184177;23;19921;-84
2022/10/09 06:10:21;;;;;;;;;;;15.70;99.90;;;;;;6183822;23;20007;-85
2022/10/09 06:12:48;;;;;;;;;;;15.70;99.90;;;;;;6184267;23;20004;-85
2022/10/09 06:15:15;;;;;;;;;;;15.70;99.90;;;;;;6183487;23;19931;-85
2022/10/09 06:17:42;;;;;;;;;;;15.70;99.90;;;;;;6183746;23;19999;-85
2022/10/09 06:20:09;;;;;;;;;;;15.70;99.90;;;;;;6183289;23;19972;-84
2022/10/09 06:22:35;;;;;;;;;;;15.70;99.90;;;;;;6183774;23;19927;-84
2022/10/09 06:25:02;;;;;;;;;;;15.70;99.90;;;;;;6183662;23;19952;-85
2022/10/09 06:27:29;;;;;;;;;;;15.70;99.90;;;;;;6182908;23;19928;-84
2022/10/09 06:29:56;;;;;;;;;;;15.80;99.90;;;;;;6183904;23;19931;-84
2022/10/09 06:32:22;;;;;;;;;;;15.80;99.90;;;;;;6183195;23;19991;-85
2022/10/09 06:34:49;;;;;;;;;;;15.70;99.90;;;;;;6184083;23;19920;-85
2022/10/09 06:37:16;;;;;;;;;;;15.70;99.90;;;;;;6182926;23;19927;-85
2022/10/09 06:39:42;;;;;;;;;;;15.70;99.90;;;;;;6184916;23;19995;-84
2022/10/09 06:42:09;;;;;;;;;;;15.70;99.90;;;;;;6182796;23;19926;-82
2022/10/09 06:44:36;;;;;;;;;;;15.70;99.90;;;;;;6183659;23;19921;-83
2022/10/09 06:47:03;;;;;;;;;;;15.70;99.90;;;;;;6185225;23;19927;-84
2022/10/09 06:49:29;;;;;;;;;;;15.70;99.90;;;;;;6182803;23;20349;-84
2022/10/09 06:51:56;;;;;;;;;;;15.80;99.90;;;;;;6183678;23;19920;-85
2022/10/09 06:54:23;;;;;;;;;;;15.80;99.90;;;;;;6182688;23;19920;-84
2022/10/09 06:56:52;;;;;;;;;;;15.80;99.90;;;;;;6183654;23;19991;-84
2022/10/09 06:59:19;;;;;;;;;;;15.80;99.90;;;;;;6182737;23;20004;-84
2022/10/09 07:01:45;;;;;;;;;;;15.90;99.90;;;;;;6183349;23;19987;-85
2022/10/09 07:04:13;;;;;;;;;;;15.90;99.90;;;;;;6183650;23;19924;-84
2022/10/09 07:06:41;;;;;;;;;;;15.90;99.90;;;;;;6184598;23;19924;-84
2022/10/09 07:09:09;;;;;;;;;;;15.90;99.90;;;;;;6183791;23;19999;-84
2022/10/09 07:11:37;;;;;;;;;;;15.90;99.90;;;;;;6182683;23;19920;-84
2022/10/09 07:14:05;;;;;;;;;;;15.90;99.90;;;;;;6183342;23;19995;-84
2022/10/09 07:16:36;;;;;;;;;;;15.90;99.90;;;;;;6182592;23;19924;-83
2022/10/09 07:19:06;;;;;;;;;;;16.00;99.90;;;;;;6182967;23;19995;-84
2022/10/09 07:21:34;;;;;;;;;;;16.00;99.90;;;;;;6182445;23;19920;-83
2022/10/09 07:24:01;;;;;;;;;;;16.00;99.90;;;;;;6184553;23;19920;-83
2022/10/09 07:26:28;;;;;;;;;;;16.00;99.90;;;;;;6182551;23;20019;-84
2022/10/09 07:28:56;;;;;;;;;;;16.10;99.90;;;;;;6183120;23;19951;-82
2022/10/09 07:31:22;;;;;;;;;;;16.00;99.90;;;;;;6182276;23;19925;-84
2022/10/09 07:33:50;;;;;;;;;;;16.00;99.90;;;;;;6183112;23;19920;-82
2022/10/09 07:36:17;;;;;;;;;;;16.10;99.90;;;;;;6182870;23;19924;-84
2022/10/09 07:38:50;;;;;;;;;;;16.00;99.90;;;;;;6183341;23;20161;-84
2022/10/09 07:41:17;;;;;;;;;;;16.00;99.90;;;;;;6182165;23;19991;-84
2022/10/09 07:43:44;;;;;;;;;;;16.00;99.90;;;;;;6183419;23;19956;-85
2022/10/09 07:46:12;;;;;;;;;;;16.10;99.90;;;;;;6183381;23;20299;-84
2022/10/09 07:48:39;;;;;;;;;;;16.10;99.90;;;;;;6182688;23;19927;-84
2022/10/09 07:51:16;;;;;;;;;;;16.10;99.90;;;;;;6184331;23;19920;-84
2022/10/09 07:53:43;;;;;;;;;;;16.10;99.90;;;;;;6184246;23;19936;-84
2022/10/09 07:56:14;;;;;;;;;;;16.10;99.90;;;;;;6185065;23;19967;-83
2022/10/09 07:58:41;;;;;;;;;;;16.10;99.90;;;;;;6182818;23;19920;-84
2022/10/09 08:01:08;;;;;;;;;;;16.10;99.90;;;;;;6185112;23;19920;-84
2022/10/09 08:03:35;;;;;;;;;;;16.10;99.90;;;;;;6184582;23;19927;-84
2022/10/09 08:06:02;;;;;;;;;;;16.10;99.90;;;;;;6185626;23;19998;-84
2022/10/09 08:08:29;;;;;;;;;;;16.20;99.90;;;;;;6184393;23;19991;-85
2022/10/09 08:10:56;;;;;;;;;;;16.20;99.90;;;;;;6185264;23;19944;-85
2022/10/09 08:13:25;;;;;;;;;;;16.20;99.90;;;;;;6183868;23;20368;-84
2022/10/09 08:15:51;;;;;;;;;;;16.20;99.90;;;;;;6184918;23;20387;-85
2022/10/09 08:18:18;;;;;;;;;;;16.30;99.90;;;;;;6185214;23;19920;-84
2022/10/09 08:20:54;;;;;;;;;;;16.30;99.90;;;;;;6184556;23;19920;-84
2022/10/09 08:23:21;;;;;;;;;;;16.30;99.90;;;;;;6184537;23;19996;-84
2022/10/09 08:25:48;;;;;;;;;;;16.30;99.90;;;;;;6185389;23;19920;-84
2022/10/09 08:28:15;;;;;;;;;;;16.40;99.90;;;;;;6184865;23;19999;-84
2022/10/09 08:30:42;;;;;;;;;;;16.40;99.90;;;;;;6184462;23;19947;-84
2022/10/09 08:33:09;;;;;;;;;;;16.40;99.90;;;;;;6186078;23;20252;-83
2022/10/09 08:35:35;;;;;;;;;;;16.40;99.90;;;;;;6184203;23;19920;-83
2022/10/09 08:38:02;;;;;;;;;;;16.50;99.90;;;;;;6184950;23;19999;-84
2022/10/09 08:40:37;;;;;;;;;;;16.40;99.90;;;;;;6185316;23;19921;-83
2022/10/09 08:43:05;;;;;;;;;;;16.40;99.90;;;;;;6184067;23;19928;-83
2022/10/09 08:45:33;;;;;;;;;;;16.40;99.90;;;;;;6184513;23;20329;-83
2022/10/09 08:48:03;;;;;;;;;;;16.50;99.90;;;;;;6185402;23;19998;-84
2022/10/09 08:50:33;;;;;;;;;;;16.50;99.90;;;;;;6184270;23;19999;-83
2022/10/09 08:53:21;;;;;;;;;;;16.50;99.90;;;;;;6185031;23;19920;-84
2022/10/09 08:55:50;;;;;;;;;;;16.50;99.90;;;;;;6184027;23;20281;-83
2022/10/09 08:58:19;;;;;;;;;;;16.50;99.90;;;;;;6185102;23;19975;-84
2022/10/09 09:00:59;;;;;;;;;;;16.50;99.90;;;;;;6184008;23;20004;-83
2022/10/09 09:03:44;;;;;;;;;;;16.50;99.90;;;;;;6184185;23;20256;-83
2022/10/09 09:06:16;;;;;;;;;;;16.50;99.90;;;;;;6185092;23;19991;-84
2022/10/09 09:08:49;;;;;;;;;;;16.50;99.90;;;;;;6184485;23;19960;-83
2022/10/09 09:11:35;;;;;;;;;;;16.50;99.90;;;;;;6184873;23;19951;-84
2022/10/09 09:14:21;;;;;;;;;;;16.50;99.90;;;;;;6186934;23;19931;-83
2022/10/09 09:16:54;;;;;;;;;;;16.50;99.90;;;;;;6184558;23;20312;-84
2022/10/09 09:19:23;;;;;;;;;;;16.50;99.90;;;;;;6184601;23;19995;-84
2022/10/09 09:21:51;;;;;;;;;;;16.50;99.90;;;;;;6183666;23;19920;-84
2022/10/09 09:24:19;;;;;;;;;;;16.50;99.90;;;;;;6183922;23;19942;-84
2022/10/09 09:26:58;;;;;;;;;;;16.50;99.90;;;;;;6182978;23;19955;-84
2022/10/09 09:29:25;;;;;;;;;;;16.50;99.90;;;;;;6184197;23;19935;-82
2022/10/09 09:31:56;;;;;;;;;;;16.50;99.90;;;;;;6183339;23;19959;-84
2022/10/09 09:34:41;;;;;;;;;;;16.50;99.90;;;;;;6183995;23;19944;-85
2022/10/09 09:37:11;;;;;;;;;;;16.40;99.90;;;;;;6183464;23;19927;-84
2022/10/09 09:39:39;;;;;;;;;;;16.50;99.90;;;;;;6183985;23;20256;-84
2022/10/09 09:42:26;;;;;;;;;;;16.50;99.90;;;;;;6183832;23;19920;-85
2022/10/09 09:45:03;;;;;;;;;;;16.40;99.90;;;;;;6185346;23;19987;-84
2022/10/09 09:47:35;;;;;;;;;;;16.40;99.90;;;;;;6185418;23;20309;-85
2022/10/09 09:50:03;;;;;;;;;;;16.40;99.90;;;;;;6184403;23;20364;-84
2022/10/09 09:52:33;;;;;;;;;;;16.40;99.90;;;;;;6183959;23;19921;-83
2022/10/09 09:55:00;;;;;;;;;;;16.40;99.90;;;;;;6183663;23;19948;-81
2022/10/09 09:57:34;;;;;;;;;;;16.40;99.90;;;;;;6182377;23;20011;-81
2022/10/09 10:00:24;;;;;;;;;;;16.40;99.90;;;;;;6183195;23;19920;-81
2022/10/09 10:03:00;;;;;;;;;;;16.50;99.90;;;;;;6182084;23;20337;-81
2022/10/09 10:05:33;;;;;;;;;;;16.40;99.90;;;;;;6182428;23;20297;-81
2022/10/09 10:07:59;;;;;;;;;;;16.40;99.90;;;;;;6183171;23;19920;-81
2022/10/09 10:10:26;;;;;;;;;;;16.40;99.90;;;;;;6183272;23;20352;-80
2022/10/09 10:12:54;;;;;;;;;;;16.40;99.90;;;;;;6207025;23;19920;-80
2022/10/09 10:15:21;;;;;;;;;;;16.40;99.90;;;;;;6182631;23;20314;-81
2022/10/09 10:17:49;;;;;;;;;;;16.40;99.90;;;;;;6181645;23;19992;-80
2022/10/09 10:20:16;;;;;;;;;;;16.30;99.90;;;;;;6182624;23;19921;-81
2022/10/09 10:22:50;;;;;;;;;;;16.30;99.90;;;;;;6182514;23;19920;-80
2022/10/09 10:25:19;;;;;;;;;;;16.30;99.90;;;;;;6183220;23;19943;-81
2022/10/09 10:27:49;;;;;;;;;;;16.30;99.90;;;;;;6182310;23;19955;-81
2022/10/09 10:30:17;;;;;;;;;;;16.30;99.90;;;;;;6183255;23;19920;-81
2022/10/09 10:33:00;;;;;;;;;;;16.30;99.90;;;;;;6181932;23;19924;-81
2022/10/09 10:35:29;;;;;;;;;;;16.30;99.90;;;;;;6182237;23;20276;-81
2022/10/09 10:38:04;;;;;;;;;;;16.30;99.90;;;;;;6182635;23;20370;-81
2022/10/09 10:40:30;;;;;;;;;;;16.30;99.90;;;;;;6183058;23;20230;-81
2022/10/09 10:43:06;;;;;;;;;;;16.30;99.90;;;;;;6182514;23;19924;-81
2022/10/09 10:45:37;;;;;;;;;;;16.30;99.90;;;;;;6181795;23;19920;-80
2022/10/09 10:48:07;;;;;;;;;;;16.30;99.90;;;;;;6182711;23;20015;-81
2022/10/09 10:50:39;;;;;;;;;;;16.30;99.90;;;;;;6182461;23;20329;-81
2022/10/09 10:53:38;;;;;;;;;;;16.30;99.90;;;;;;6182937;23;19920;-81
2022/10/09 10:56:11;;;;;;;;;;;16.30;99.90;;;;;;6133729;23;19920;-81
2022/10/09 10:58:46;;;;;;;;;;;16.40;99.90;;;;;;6182745;23;20248;-82
2022/10/09 11:01:32;;;;;;;;;;;16.40;99.90;;;;;;6182110;23;19968;-81
2022/10/09 11:04:11;;;;;;;;;;;16.40;99.90;;;;;;6182495;23;20004;-81
2022/10/09 11:06:46;;;;;;;;;;;16.40;99.90;;;;;;6182454;23;19951;-81
2022/10/09 11:09:19;;;;;;;;;;;16.40;99.90;;;;;;6182383;23;20241;-81
2022/10/09 11:11:53;;;;;;;;;;;16.40;99.90;;;;;;6182871;23;19920;-81
2022/10/09 11:14:40;;;;;;;;;;;16.30;99.90;;;;;;6182439;23;19920;-82
2022/10/09 11:17:17;;;;;;;;;;;16.40;99.90;;;;;;6182144;23;20002;-81
2022/10/09 11:19:44;;;;;;;;;;;16.40;99.90;;;;;;6184403;23;19927;-81
2022/10/09 11:22:17;;;;;;;;;;;16.40;99.90;;;;;;6182072;23;19951;-82
2022/10/09 11:24:47;;;;;;;;;;;16.30;99.90;;;;;;6184104;23;19921;-82
2022/10/09 11:27:31;;;;;;;;;;;16.30;99.90;;;;;;6181772;23;19963;-82
2022/10/09 11:30:03;;;;;;;;;;;16.30;99.90;;;;;;6181710;23;20234;-82
2022/10/09 11:32:29;;;;;;;;;;;16.40;99.90;;;;;;6182608;23;19940;-82
2022/10/09 11:35:05;;;;;;;;;;;16.40;99.90;;;;;;6182067;23;19947;-82
2022/10/09 11:37:34;;;;;;;;;;;16.40;99.90;;;;;;6206951;23;19928;-82
2022/10/09 11:40:15;;;;;;;;;;;16.40;99.90;;;;;;6182688;23;20326;-83
2022/10/09 11:42:45;;;;;;;;;;;16.40;99.90;;;;;;6182438;23;19924;-82
2022/10/09 11:45:29;;;;;;;;;;;16.40;99.90;;;;;;6182960;23;20497;-82
2022/10/09 11:48:07;;;;;;;;;;;16.30;99.90;;;;;;6183612;23;19928;-81
2022/10/09 11:50:36;;;;;;;;;;;16.30;99.90;;;;;;6181772;23;19954;-81
2022/10/09 11:53:14;;;;;;;;;;;16.30;99.90;;;;;;6183111;23;20308;-81
2022/10/09 11:55:42;;;;;;;;;;;16.30;99.90;;;;;;6181983;23;19987;-81
2022/10/09 11:58:18;;;;;;;;;;;16.30;99.90;;;;;;6182531;23;19992;-82
2022/10/09 12:00:46;;;;;;;;;;;16.30;99.90;;;;;;6181956;23;19920;-82
2022/10/09 12:03:32;;;;;;;;;;;16.30;99.90;;;;;;6182552;23;19924;-81
2022/10/09 12:06:16;;;;;;;;;;;16.30;99.90;;;;;;6182499;23;19920;-81
2022/10/09 12:08:53;;;;;;;;;;;16.30;99.90;;;;;;6181530;23;20358;-81
2022/10/09 12:11:21;;;;;;;;;;;16.30;99.90;;;;;;6182242;23;19950;-81
2022/10/09 12:13:49;;;;;;;;;;;16.30;99.90;;;;;;6181065;23;19924;-80
2022/10/09 12:16:31;;;;;;;;;;;16.30;99.90;;;;;;6183817;23;19947;-80
2022/10/09 12:18:59;;;;;;;;;;;16.30;99.90;;;;;;6181332;23;19927;-81
2022/10/09 12:22:04;;;;;;;;;;;16.30;99.90;;;;;;6182138;23;19963;-81
2022/10/09 12:24:39;;;;;;;;;;;16.30;99.90;;;;;;6097878;23;19921;-81
2022/10/09 12:27:06;;;;;;;;;;;16.30;99.90;;;;;;6121896;23;20005;-81
2022/10/09 12:29:43;;;;;;;;;;;16.30;99.90;;;;;;6154198;23;20031;-81
2022/10/09 12:32:17;;;;;;;;;;;16.30;99.90;;;;;;6181278;23;19943;-81
2022/10/09 12:34:46;;;;;;;;;;;16.30;99.90;;;;;;6182545;23;19991;-81
2022/10/09 12:37:17;;;;;;;;;;;16.30;99.90;;;;;;6181603;23;19999;-81
2022/10/09 12:39:44;;;;;;;;;;;16.30;99.90;;;;;;6182720;23;19920;-80
2022/10/09 12:42:15;;;;;;;;;;;16.30;99.90;;;;;;6181841;23;19947;-80
2022/10/09 12:44:43;;;;;;;;;;;16.30;99.90;;;;;;6182708;23;19920;-80
2022/10/09 12:47:28;;;;;;;;;;;16.40;99.90;;;;;;6183265;23;19920;-80
2022/10/09 12:49:58;;;;;;;;;;;16.30;99.90;;;;;;6184391;23;19944;-80
2022/10/09 12:52:25;;;;;;;;;;;16.30;99.90;;;;;;6183295;23;19991;-80
2022/10/09 12:54:52;;;;;;;;;;;16.30;99.90;;;;;;6183576;23;20018;-80
2022/10/09 12:57:19;;;;;;;;;;;16.40;99.90;;;;;;6183083;23;19920;-80
2022/10/09 12:59:52;;;;;;;;;;;16.40;99.90;;;;;;6184573;23;19920;-80
2022/10/09 13:02:19;;;;;;;;;;;16.40;99.90;;;;;;6183703;23;19927;-80
2022/10/09 13:04:57;;;;;;;;;;;16.40;99.90;;;;;;6185265;23;20352;-80
2022/10/09 13:07:25;;;;;;;;;;;16.30;99.90;;;;;;6183362;23;19924;-81
2022/10/09 13:09:57;;;;;;;;;;;16.40;99.90;;;;;;6184205;23;19932;-80
2022/10/09 13:12:25;;;;;;;;;;;16.40;99.90;;;;;;6181680;23;19931;-81
2022/10/09 13:14:54;;;;;;;;;;;16.40;99.90;;;;;;6181071;23;20015;-80
2022/10/09 13:17:23;;;;;;;;;;;16.30;99.90;;;;;;6181318;23;19920;-81
2022/10/09 13:19:51;;;;;;;;;;;16.30;99.90;;;;;;6180754;23;19921;-80
2022/10/09 13:22:20;;;;;;;;;;;16.20;99.90;;;;;;6173695;23;19999;-80
2022/10/09 13:24:49;;;;;;;;;;;16.10;99.90;;;;;;6183785;23;19930;-81
2022/10/09 13:27:18;;;;;;;;;;;16.10;99.90;;;;;;6183233;23;19947;-81
2022/10/09 13:29:46;;;;;;;;;;;16.00;99.90;;;;;;6182362;23;19999;-82
2022/10/09 13:32:13;;;;;;;;;;;15.90;99.90;;;;;;6183518;23;19987;-81
2022/10/09 13:34:40;;;;;;;;;;;15.80;99.90;;;;;;6181921;23;19951;-80
2022/10/09 13:37:10;;;;;;;;;;;15.80;99.90;;;;;;6184225;23;19952;-81
2022/10/09 13:39:37;;;;;;;;;;;15.70;99.90;;;;;;6181399;23;20010;-81
2022/10/09 13:42:04;;;;;;;;;;;15.70;99.90;;;;;;6182916;23;19924;-81
2022/10/09 13:44:30;;;;;;;;;;;15.70;99.90;;;;;;6181903;23;20252;-81
2022/10/09 13:46:57;;;;;;;;;;;15.60;99.60;;;;;;6182562;23;19924;-81
2022/10/09 13:49:24;;;;;;;;;;;15.60;99.90;;;;;;6182091;23;19927;-81
2022/10/09 13:51:51;;;;;;;;;;;15.60;99.70;;;;;;6183383;23;19927;-81
2022/10/09 13:54:18;;;;;;;;;;;15.60;99.30;;;;;;6181449;23;20311;-81
2022/10/09 13:56:44;;;;;;;;;;;15.60;99.90;;;;;;6182080;23;19940;-81
2022/10/09 13:59:11;;;;;;;;;;;15.60;99.90;;;;;;6183376;23;19924;-81
2022/10/09 14:01:38;;;;;;;;;;;15.60;99.90;;;;;;6182967;23;19920;-81
2022/10/09 14:04:05;;;;;;;;;;;15.60;99.90;;;;;;6182362;23;19927;-81
2022/10/09 14:06:35;;;;;;;;;;;15.60;99.90;;;;;;6182017;23;20019;-81
2022/10/09 14:09:03;;;;;;;;;;;15.60;99.90;;;;;;6181868;23;19924;-81
2022/10/09 14:11:29;;;;;;;;;;;15.60;99.90;;;;;;6182279;23;19999;-81
2022/10/09 14:13:57;;;;;;;;;;;15.60;99.90;;;;;;6183689;23;19924;-81
2022/10/09 14:16:25;;;;;;;;;;;15.60;99.90;;;;;;6181912;23;20259;-81
2022/10/09 14:18:55;;;;;;;;;;;15.50;99.90;;;;;;6182098;23;19921;-81
2022/10/09 14:21:22;;;;;;;;;;;15.50;99.90;;;;;;6181834;23;20008;-82
2022/10/09 14:23:53;;;;;;;;;;;15.50;99.90;;;;;;6182289;23;19920;-82
2022/10/09 14:26:20;;;;;;;;;;;15.50;99.90;;;;;;6180286;23;19926;-82
2022/10/09 14:28:47;;;;;;;;;;;15.50;99.90;;;;;;6182105;23;19954;-82
2022/10/09 14:31:16;;;;;;;;;;;15.40;99.90;;;;;;6180268;23;19924;-82